Time;durP1;ratioP1;P1;durP2;ratioP2;P2;SDS_P1;SDS_P2;PMS_P1;PMS_P2;Temp;Humidity;BMP_temperature;BMP_pressure;BME280_temperature;BME280_humidity;BME280_pressure;Samples;Min_cycle;Max_cycle;Signal;HPM_P1;HPM_P2
2022/01/09 00:02:08;;;;;;;5.70;4.07;;;;;;;;;;5115018;28;20294;-55
2022/01/09 00:04:37;;;;;;;6.72;3.90;;;;;;;;;;5117848;28;20686;-56
2022/01/09 00:07:05;;;;;;;5.63;3.97;;;;;;;;;;5110508;28;20238;-56
2022/01/09 00:09:32;;;;;;;5.95;4.03;;;;;;;;;;5103123;28;20512;-55
2022/01/09 00:11:59;;;;;;;5.88;4.10;;;;;;;;;;5109719;28;20215;-55
2022/01/09 00:14:27;;;;;;;5.82;3.78;;;;;;;;;;5108536;28;20206;-55
2022/01/09 00:16:54;;;;;;;5.10;3.70;;;;;;;;;;5117968;28;20212;-55
2022/01/09 00:19:22;;;;;;;4.68;3.17;;;;;;;;;;5118085;28;20629;-55
2022/01/09 00:21:50;;;;;;;6.88;3.25;;;;;;;;;;5118816;28;20199;-55
2022/01/09 00:24:18;;;;;;;4.50;3.17;;;;;;;;;;5118410;28;20215;-55
2022/01/09 00:26:45;;;;;;;4.25;3.47;;;;;;;;;;5118367;28;20199;-55
2022/01/09 00:29:12;;;;;;;6.35;3.50;;;;;;;;;;5118907;28;20244;-56
2022/01/09 00:31:40;;;;;;;4.57;3.20;;;;;;;;;;5117986;28;20301;-55
2022/01/09 00:34:07;;;;;;;4.03;3.33;;;;;;;;;;5118341;28;20202;-55
2022/01/09 00:36:35;;;;;;;4.35;3.00;;;;;;;;;;5117416;28;20198;-55
2022/01/09 00:39:04;;;;;;;3.00;2.60;;;;;;;;;;5118409;28;20444;-55
2022/01/09 00:41:31;;;;;;;3.70;2.83;;;;;;;;;;5118490;28;20210;-56
2022/01/09 00:43:59;;;;;;;3.60;2.50;;;;;;;;;;5118265;28;20285;-55
2022/01/09 00:46:27;;;;;;;3.10;2.70;;;;;;;;;;5118581;28;20198;-55
2022/01/09 00:48:54;;;;;;;3.30;2.60;;;;;;;;;;5118428;28;20194;-55
2022/01/09 00:51:23;;;;;;;3.95;2.70;;;;;;;;;;5118348;28;20233;-56
2022/01/09 00:53:50;;;;;;;3.72;2.45;;;;;;;;;;5118204;28;20214;-55
2022/01/09 00:56:19;;;;;;;2.42;2.00;;;;;;;;;;5117728;28;20199;-56
2022/01/09 00:58:46;;;;;;;2.80;2.50;;;;;;;;;;5118489;28;20199;-55
2022/01/09 01:01:14;;;;;;;2.38;2.10;;;;;;;;;;5118239;28;20482;-55
2022/01/09 01:03:41;;;;;;;3.97;2.50;;;;;;;;;;5117925;28;20609;-55
2022/01/09 01:06:08;;;;;;;2.78;2.20;;;;;;;;;;5117479;28;20199;-55
2022/01/09 01:08:36;;;;;;;2.38;2.00;;;;;;;;;;5116825;28;20246;-55
2022/01/09 01:11:03;;;;;;;2.85;2.17;;;;;;;;;;5117444;28;20203;-55
2022/01/09 01:13:32;;;;;;;2.30;1.98;;;;;;;;;;5117894;28;20270;-56
2022/01/09 01:15:59;;;;;;;2.15;1.95;;;;;;;;;;5107646;28;20207;-55
2022/01/09 01:18:27;;;;;;;3.20;2.20;;;;;;;;;;5110723;28;20218;-55
2022/01/09 01:20:54;;;;;;;2.75;2.10;;;;;;;;;;5117529;28;20222;-55
2022/01/09 01:23:21;;;;;;;2.60;1.90;;;;;;;;;;5117208;28;20207;-55
2022/01/09 01:25:51;;;;;;;2.20;1.92;;;;;;;;;;5118502;28;20572;-55
2022/01/09 01:28:19;;;;;;;1.90;1.73;;;;;;;;;;5118157;28;20341;-55
2022/01/09 01:30:47;;;;;;;3.58;3.10;;;;;;;;;;5113388;28;20605;-55
2022/01/09 01:33:15;;;;;;;3.35;2.88;;;;;;;;;;5113017;28;20492;-55
2022/01/09 01:35:42;;;;;;;4.32;2.90;;;;;;;;;;5117644;28;20210;-55
2022/01/09 01:38:09;;;;;;;3.65;2.67;;;;;;;;;;5115597;28;20199;-55
2022/01/09 01:40:38;;;;;;;3.70;2.65;;;;;;;;;;5105144;28;20231;-55
2022/01/09 01:43:05;;;;;;;3.78;2.78;;;;;;;;;;5116196;28;20217;-55
2022/01/09 01:45:33;;;;;;;3.22;2.53;;;;;;;;;;5102541;28;20595;-55
2022/01/09 01:48:06;;;;;;;3.88;2.58;;;;;;;;;;5106607;28;20214;-55
2022/01/09 01:50:37;;;;;;;2.38;2.17;;;;;;;;;;5106719;28;20260;-55
2022/01/09 01:53:06;;;;;;;3.15;2.20;;;;;;;;;;5097578;28;20203;-55
2022/01/09 01:55:36;;;;;;;2.83;2.30;;;;;;;;;;5106369;28;20203;-55
2022/01/09 01:58:04;;;;;;;2.38;2.17;;;;;;;;;;5097852;28;20208;-55
2022/01/09 02:00:31;;;;;;;2.25;1.98;;;;;;;;;;5109525;28;20231;-55
2022/01/09 02:02:59;;;;;;;4.20;2.20;;;;;;;;;;5117653;28;20202;-55
2022/01/09 02:05:27;;;;;;;2.55;2.10;;;;;;;;;;5116518;28;20197;-56
2022/01/09 02:07:58;;;;;;;2.47;1.80;;;;;;;;;;5116518;28;20203;-56
2022/01/09 02:10:25;;;;;;;2.85;1.90;;;;;;;;;;5117218;28;20277;-55
2022/01/09 02:12:56;;;;;;;2.10;1.90;;;;;;;;;;5116368;28;20206;-56
2022/01/09 02:15:34;;;;;;;2.28;2.00;;;;;;;;;;5116599;28;20256;-56
2022/01/09 02:18:01;;;;;;;1.95;1.65;;;;;;;;;;5117241;28;20199;-56
2022/01/09 02:20:30;;;;;;;1.98;1.60;;;;;;;;;;5116292;28;20215;-56
2022/01/09 02:22:58;;;;;;;2.88;1.80;;;;;;;;;;5116385;28;20199;-55
2022/01/09 02:25:26;;;;;;;1.83;1.70;;;;;;;;;;5116361;28;20199;-55
2022/01/09 02:27:53;;;;;;;2.10;1.90;;;;;;;;;;5115981;28;20579;-56
2022/01/09 02:30:20;;;;;;;1.50;1.40;;;;;;;;;;5115684;28;20195;-55
2022/01/09 02:32:48;;;;;;;1.80;1.50;;;;;;;;;;5115357;28;20199;-55
2022/01/09 02:35:15;;;;;;;2.22;1.63;;;;;;;;;;5115924;28;20500;-56
2022/01/09 02:37:44;;;;;;;1.83;1.65;;;;;;;;;;5115914;28;20203;-55
2022/01/09 02:40:11;;;;;;;1.75;1.65;;;;;;;;;;5116869;28;20226;-55
2022/01/09 02:42:39;;;;;;;1.52;1.40;;;;;;;;;;5115926;28;20203;-56
2022/01/09 02:45:06;;;;;;;1.42;1.33;;;;;;;;;;5116142;28;20260;-56
2022/01/09 02:47:35;;;;;;;1.52;1.40;;;;;;;;;;5115302;28;20214;-56
2022/01/09 02:50:11;;;;;;;1.73;1.40;;;;;;;;;;5115276;28;20288;-56
2022/01/09 02:52:49;;;;;;;1.40;1.27;;;;;;;;;;5116591;28;20255;-56
2022/01/09 02:55:18;;;;;;;1.48;1.20;;;;;;;;;;5116246;28;20199;-56
2022/01/09 02:57:46;;;;;;;1.40;1.30;;;;;;;;;;5115918;28;20593;-55
2022/01/09 03:00:14;;;;;;;1.58;1.33;;;;;;;;;;5115362;28;20466;-56
2022/01/09 03:02:41;;;;;;;5.78;4.40;;;;;;;;;;5116354;28;20203;-55
2022/01/09 03:05:10;;;;;;;4.78;4.28;;;;;;;;;;5116380;28;20199;-55
2022/01/09 03:07:37;;;;;;;3.22;2.92;;;;;;;;;;5115873;28;20206;-55
2022/01/09 03:10:05;;;;;;;4.35;3.85;;;;;;;;;;5119457;28;20199;-55
2022/01/09 03:12:34;;;;;;;4.78;3.50;;;;;;;;;;5119906;28;20199;-55
2022/01/09 03:15:01;;;;;;;3.30;3.00;;;;;;;;;;5120655;28;20486;-56
2022/01/09 03:17:29;;;;;;;3.38;2.97;;;;;;;;;;5119826;28;20664;-56
2022/01/09 03:19:56;;;;;;;3.22;2.92;;;;;;;;;;5119390;28;20229;-56
2022/01/09 03:22:24;;;;;;;3.30;3.00;;;;;;;;;;5120128;28;20225;-55
2022/01/09 03:24:51;;;;;;;3.22;2.90;;;;;;;;;;5119215;28;20210;-55
2022/01/09 03:27:19;;;;;;;3.40;2.63;;;;;;;;;;5119880;28;20199;-55
2022/01/09 03:29:48;;;;;;;3.40;2.75;;;;;;;;;;5119742;28;20191;-55
2022/01/09 03:32:15;;;;;;;2.97;2.40;;;;;;;;;;5119409;28;20199;-55
2022/01/09 03:34:42;;;;;;;2.70;2.30;;;;;;;;;;5119575;28;20196;-55
2022/01/09 03:37:10;;;;;;;2.28;2.05;;;;;;;;;;5119516;28;20226;-56
2022/01/09 03:39:37;;;;;;;2.67;2.20;;;;;;;;;;5119276;28;20198;-55
2022/01/09 03:42:05;;;;;;;2.88;2.58;;;;;;;;;;5119333;28;20469;-55
2022/01/09 03:44:32;;;;;;;2.30;2.10;;;;;;;;;;5119781;28;20199;-55
2022/01/09 03:47:01;;;;;;;2.95;2.53;;;;;;;;;;5118633;28;20231;-55
2022/01/09 03:49:28;;;;;;;2.22;2.03;;;;;;;;;;5120427;28;20272;-55
2022/01/09 03:51:57;;;;;;;2.40;2.20;;;;;;;;;;5120507;28;20195;-55
2022/01/09 03:54:24;;;;;;;2.58;1.90;;;;;;;;;;5119931;27;20602;-55
2022/01/09 03:56:52;;;;;;;2.28;2.08;;;;;;;;;;5119682;28;20209;-56
2022/01/09 03:59:20;;;;;;;2.15;1.83;;;;;;;;;;5119649;28;20206;-55
2022/01/09 04:01:47;;;;;;;2.22;2.03;;;;;;;;;;5119477;28;20222;-55
2022/01/09 04:04:16;;;;;;;2.20;2.00;;;;;;;;;;5120060;28;20253;-55
2022/01/09 04:06:48;;;;;;;2.40;2.00;;;;;;;;;;5118929;28;20206;-55
2022/01/09 04:09:21;;;;;;;2.38;1.70;;;;;;;;;;5116804;28;20226;-55
2022/01/09 04:11:48;;;;;;;1.73;1.63;;;;;;;;;;5118416;28;20787;-55
2022/01/09 04:14:16;;;;;;;2.00;1.80;;;;;;;;;;5117675;27;20594;-55
2022/01/09 04:16:44;;;;;;;1.70;1.60;;;;;;;;;;5119758;28;20209;-55
2022/01/09 04:19:13;;;;;;;2.10;1.50;;;;;;;;;;5118158;28;20213;-55
2022/01/09 04:21:43;;;;;;;1.60;1.50;;;;;;;;;;5118810;28;20234;-55
2022/01/09 04:24:11;;;;;;;1.63;1.50;;;;;;;;;;5118295;28;20590;-55
2022/01/09 04:26:38;;;;;;;1.45;1.30;;;;;;;;;;5118836;28;20206;-55
2022/01/09 04:29:06;;;;;;;1.55;1.45;;;;;;;;;;5118814;28;20210;-55
2022/01/09 04:31:34;;;;;;;1.45;1.35;;;;;;;;;;5118942;28;20195;-55
2022/01/09 04:34:01;;;;;;;1.60;1.50;;;;;;;;;;5118679;28;20203;-55
2022/01/09 04:36:28;;;;;;;1.55;1.35;;;;;;;;;;5114346;28;20203;-55
2022/01/09 04:38:57;;;;;;;1.65;1.40;;;;;;;;;;5118375;28;20582;-55
2022/01/09 04:41:25;;;;;;;1.50;1.40;;;;;;;;;;5118387;28;20219;-55
2022/01/09 04:43:52;;;;;;;1.92;1.35;;;;;;;;;;5118081;28;20207;-55
2022/01/09 04:46:25;;;;;;;1.67;1.58;;;;;;;;;;5118211;28;20203;-55
2022/01/09 04:48:54;;;;;;;1.40;1.30;;;;;;;;;;5118304;28;20203;-55
2022/01/09 04:51:22;;;;;;;1.20;1.05;;;;;;;;;;5118008;28;20299;-55
2022/01/09 04:53:50;;;;;;;1.30;1.20;;;;;;;;;;5117590;28;20808;-55
2022/01/09 04:56:18;;;;;;;1.17;1.08;;;;;;;;;;5118197;28;20203;-55
2022/01/09 04:58:46;;;;;;;1.20;1.10;;;;;;;;;;5117265;28;20272;-55
2022/01/09 05:01:13;;;;;;;1.20;1.10;;;;;;;;;;5118020;28;20219;-55
2022/01/09 05:03:40;;;;;;;1.30;1.20;;;;;;;;;;5118355;28;20210;-55
2022/01/09 05:06:08;;;;;;;1.10;1.00;;;;;;;;;;5118172;28;20489;-55
2022/01/09 05:08:36;;;;;;;1.25;1.15;;;;;;;;;;5117282;28;20639;-55
2022/01/09 05:11:03;;;;;;;1.33;1.23;;;;;;;;;;5117923;28;20228;-55
2022/01/09 05:13:32;;;;;;;0.95;0.93;;;;;;;;;;5118489;28;20213;-55
2022/01/09 05:16:00;;;;;;;1.30;1.10;;;;;;;;;;5116752;28;20213;-55
2022/01/09 05:18:27;;;;;;;1.67;1.15;;;;;;;;;;5117696;28;20231;-55
2022/01/09 05:20:55;;;;;;;1.20;0.90;;;;;;;;;;5117021;28;20620;-55
2022/01/09 05:23:22;;;;;;;1.00;0.90;;;;;;;;;;5117284;28;20469;-56
2022/01/09 05:25:49;;;;;;;1.20;1.10;;;;;;;;;;5117607;28;20207;-55
2022/01/09 05:28:17;;;;;;;1.15;1.00;;;;;;;;;;5117631;28;20210;-55
2022/01/09 05:30:45;;;;;;;1.00;0.85;;;;;;;;;;5116179;28;20199;-55
2022/01/09 05:33:13;;;;;;;1.20;1.10;;;;;;;;;;5118274;28;20215;-55
2022/01/09 05:35:40;;;;;;;1.02;0.90;;;;;;;;;;5116759;28;20206;-55
2022/01/09 05:38:08;;;;;;;0.80;0.80;;;;;;;;;;5118078;28;20203;-55
2022/01/09 05:40:35;;;;;;;0.82;0.80;;;;;;;;;;5118086;28;20223;-55
2022/01/09 05:43:02;;;;;;;1.25;1.00;;;;;;;;;;5117559;28;20199;-55
2022/01/09 05:45:30;;;;;;;0.70;0.70;;;;;;;;;;5117623;28;20214;-55
2022/01/09 05:48:01;;;;;;;0.88;0.88;;;;;;;;;;5117404;28;20207;-55
2022/01/09 05:50:29;;;;;;;0.80;0.73;;;;;;;;;;5117178;28;20302;-55
2022/01/09 05:52:56;;;;;;;0.70;0.70;;;;;;;;;;5116966;28;20211;-55
2022/01/09 05:55:24;;;;;;;0.68;0.68;;;;;;;;;;5117259;28;20210;-55
2022/01/09 05:57:51;;;;;;;0.70;0.63;;;;;;;;;;5117547;28;20493;-55
2022/01/09 06:00:19;;;;;;;0.73;0.70;;;;;;;;;;5116604;28;20199;-55
2022/01/09 06:02:46;;;;;;;0.88;0.88;;;;;;;;;;5116458;28;20210;-55
2022/01/09 06:05:15;;;;;;;1.15;0.88;;;;;;;;;;5116633;28;20199;-55
2022/01/09 06:07:43;;;;;;;0.80;0.63;;;;;;;;;;5116693;28;20209;-55
2022/01/09 06:10:11;;;;;;;0.80;0.70;;;;;;;;;;5116550;28;20203;-55
2022/01/09 06:12:38;;;;;;;0.80;0.70;;;;;;;;;;5116801;28;20198;-55
2022/01/09 06:15:06;;;;;;;0.60;0.60;;;;;;;;;;5116385;28;20203;-55
2022/01/09 06:17:36;;;;;;;0.80;0.70;;;;;;;;;;5116191;28;20195;-55
2022/01/09 06:20:03;;;;;;;0.60;0.60;;;;;;;;;;5116232;28;20207;-55
2022/01/09 06:22:32;;;;;;;0.57;0.57;;;;;;;;;;5115795;28;20219;-55
2022/01/09 06:24:59;;;;;;;0.60;0.60;;;;;;;;;;5116427;28;20210;-56
2022/01/09 06:27:27;;;;;;;0.60;0.60;;;;;;;;;;5116714;28;20199;-55
2022/01/09 06:29:54;;;;;;;0.60;0.50;;;;;;;;;;5116806;28;20209;-55
2022/01/09 06:32:22;;;;;;;0.60;0.55;;;;;;;;;;5116811;28;20206;-55
2022/01/09 06:34:49;;;;;;;0.50;0.50;;;;;;;;;;5116303;28;20222;-55
2022/01/09 06:37:16;;;;;;;0.40;0.40;;;;;;;;;;5116948;28;20203;-55
2022/01/09 06:39:45;;;;;;;0.80;0.60;;;;;;;;;;5116570;28;20218;-55
2022/01/09 06:42:13;;;;;;;0.60;0.55;;;;;;;;;;5118461;28;20219;-55
2022/01/09 06:44:40;;;;;;;0.50;0.50;;;;;;;;;;5120082;28;20222;-55
2022/01/09 06:47:08;;;;;;;0.70;0.52;;;;;;;;;;5120905;28;20195;-55
2022/01/09 06:49:36;;;;;;;0.63;0.50;;;;;;;;;;5120061;28;20199;-55
2022/01/09 06:52:03;;;;;;;0.40;0.40;;;;;;;;;;5119558;28;20604;-55
2022/01/09 06:54:30;;;;;;;0.50;0.50;;;;;;;;;;5120561;28;20195;-55
2022/01/09 06:57:00;;;;;;;0.47;0.47;;;;;;;;;;5120318;28;20229;-55
2022/01/09 06:59:27;;;;;;;0.57;0.40;;;;;;;;;;5119940;28;20263;-55
2022/01/09 07:01:54;;;;;;;0.40;0.40;;;;;;;;;;5120088;28;20246;-55
2022/01/09 07:04:22;;;;;;;0.57;0.57;;;;;;;;;;5120442;28;20195;-55
2022/01/09 07:06:49;;;;;;;0.40;0.40;;;;;;;;;;5120383;28;20206;-55
2022/01/09 07:09:16;;;;;;;0.47;0.40;;;;;;;;;;5119446;28;20233;-55
2022/01/09 07:11:44;;;;;;;0.45;0.45;;;;;;;;;;5121071;28;20207;-56
2022/01/09 07:14:14;;;;;;;0.40;0.40;;;;;;;;;;5121034;28;20198;-55
2022/01/09 07:16:41;;;;;;;0.50;0.50;;;;;;;;;;5120203;28;20234;-55
2022/01/09 07:19:08;;;;;;;0.73;0.47;;;;;;;;;;5119968;28;20203;-55
2022/01/09 07:21:36;;;;;;;0.40;0.40;;;;;;;;;;5119167;28;20238;-56
2022/01/09 07:24:04;;;;;;;0.40;0.40;;;;;;;;;;5120677;28;20202;-55
2022/01/09 07:26:31;;;;;;;0.40;0.30;;;;;;;;;;5119632;28;20203;-55
2022/01/09 07:28:58;;;;;;;0.40;0.40;;;;;;;;;;5120442;28;20199;-55
2022/01/09 07:31:27;;;;;;;0.30;0.30;;;;;;;;;;5119990;28;20199;-55
2022/01/09 07:33:54;;;;;;;0.40;0.40;;;;;;;;;;5120442;28;20617;-55
2022/01/09 07:36:22;;;;;;;0.45;0.43;;;;;;;;;;5119873;28;20199;-55
2022/01/09 07:38:49;;;;;;;0.40;0.40;;;;;;;;;;5120283;28;20230;-55
2022/01/09 07:41:17;;;;;;;0.40;0.40;;;;;;;;;;5120012;28;20223;-55
2022/01/09 07:43:44;;;;;;;0.40;0.40;;;;;;;;;;5119846;28;20252;-55
2022/01/09 07:46:12;;;;;;;0.30;0.30;;;;;;;;;;5119538;28;20602;-55
2022/01/09 07:48:40;;;;;;;0.40;0.40;;;;;;;;;;5119784;28;20300;-55
2022/01/09 07:51:09;;;;;;;0.30;0.30;;;;;;;;;;5119624;28;20199;-55
2022/01/09 07:53:36;;;;;;;0.30;0.30;;;;;;;;;;5118703;28;20221;-55
2022/01/09 07:56:05;;;;;;;0.30;0.30;;;;;;;;;;5119166;28;20210;-55
2022/01/09 07:58:32;;;;;;;0.30;0.30;;;;;;;;;;5119765;28;20211;-55
2022/01/09 08:01:00;;;;;;;0.35;0.35;;;;;;;;;;5119135;28;20226;-55
2022/01/09 08:03:27;;;;;;;0.52;0.40;;;;;;;;;;5119125;28;20202;-55
2022/01/09 08:05:56;;;;;;;0.75;0.50;;;;;;;;;;5118656;27;20206;-55
2022/01/09 08:08:23;;;;;;;0.82;0.40;;;;;;;;;;5117634;28;20227;-56
2022/01/09 08:10:51;;;;;;;0.60;0.40;;;;;;;;;;5118355;28;20591;-55
2022/01/09 08:13:18;;;;;;;0.50;0.50;;;;;;;;;;5119422;28;20578;-55
2022/01/09 08:15:46;;;;;;;0.40;0.40;;;;;;;;;;5117910;28;20203;-55
2022/01/09 08:18:13;;;;;;;0.50;0.38;;;;;;;;;;5117730;27;20582;-55
2022/01/09 08:20:41;;;;;;;0.57;0.50;;;;;;;;;;5118121;28;20226;-56
2022/01/09 08:23:09;;;;;;;1.10;0.40;;;;;;;;;;5119033;28;20250;-55
2022/01/09 08:25:37;;;;;;;0.52;0.40;;;;;;;;;;5118577;28;20598;-55
2022/01/09 08:28:04;;;;;;;0.85;0.40;;;;;;;;;;5119311;28;20203;-55
2022/01/09 08:30:32;;;;;;;0.50;0.50;;;;;;;;;;5118521;28;20282;-55
2022/01/09 08:33:00;;;;;;;0.95;0.40;;;;;;;;;;5117958;28;20195;-55
2022/01/09 08:35:28;;;;;;;0.93;0.32;;;;;;;;;;5118368;28;20597;-55
2022/01/09 08:37:55;;;;;;;0.50;0.50;;;;;;;;;;5118355;28;20199;-55
2022/01/09 08:40:24;;;;;;;0.60;0.50;;;;;;;;;;5119069;28;20210;-55
2022/01/09 08:42:53;;;;;;;0.40;0.40;;;;;;;;;;5118929;28;20223;-55
2022/01/09 08:45:20;;;;;;;0.45;0.40;;;;;;;;;;5117928;28;20221;-55
2022/01/09 08:47:48;;;;;;;0.30;0.30;;;;;;;;;;5117684;28;20251;-56
2022/01/09 08:50:17;;;;;;;0.50;0.50;;;;;;;;;;5118132;28;20266;-55
2022/01/09 08:52:44;;;;;;;0.40;0.30;;;;;;;;;;5118615;28;20203;-55
2022/01/09 08:55:13;;;;;;;1.23;0.50;;;;;;;;;;5118323;28;20206;-55
2022/01/09 08:57:42;;;;;;;0.30;0.30;;;;;;;;;;5118661;28;20203;-55
2022/01/09 09:00:11;;;;;;;0.95;0.40;;;;;;;;;;5117923;28;20577;-55
2022/01/09 09:02:41;;;;;;;0.43;0.32;;;;;;;;;;5117733;28;20219;-55
2022/01/09 09:05:08;;;;;;;0.47;0.40;;;;;;;;;;5117846;28;20265;-55
2022/01/09 09:07:36;;;;;;;1.77;0.40;;;;;;;;;;5117080;27;20191;-55
2022/01/09 09:10:03;;;;;;;0.50;0.40;;;;;;;;;;5116724;28;20672;-55
2022/01/09 09:12:31;;;;;;;0.68;0.50;;;;;;;;;;5117920;28;20241;-55
2022/01/09 09:15:00;;;;;;;0.50;0.40;;;;;;;;;;5117363;28;20238;-56
2022/01/09 09:17:28;;;;;;;0.55;0.55;;;;;;;;;;5117186;28;20256;-55
2022/01/09 09:19:55;;;;;;;0.45;0.40;;;;;;;;;;5117882;28;20199;-55
2022/01/09 09:22:22;;;;;;;0.40;0.40;;;;;;;;;;5117524;28;20219;-55
2022/01/09 09:24:50;;;;;;;0.40;0.40;;;;;;;;;;5117594;28;20206;-55
2022/01/09 09:27:18;;;;;;;0.80;0.40;;;;;;;;;;5116914;28;20203;-55
2022/01/09 09:29:45;;;;;;;0.40;0.40;;;;;;;;;;5117252;28;20210;-55
2022/01/09 09:32:14;;;;;;;0.30;0.30;;;;;;;;;;5117684;28;20199;-55
2022/01/09 09:34:41;;;;;;;0.40;0.30;;;;;;;;;;5117117;28;20536;-55
2022/01/09 09:37:09;;;;;;;0.68;0.50;;;;;;;;;;5116972;28;20203;-55
2022/01/09 09:39:36;;;;;;;0.85;0.50;;;;;;;;;;5116678;28;20199;-55
2022/01/09 09:42:04;;;;;;;0.70;0.40;;;;;;;;;;5117358;28;20249;-55
2022/01/09 09:44:31;;;;;;;0.43;0.40;;;;;;;;;;5116872;28;20472;-54
2022/01/09 09:47:00;;;;;;;0.70;0.40;;;;;;;;;;5097100;28;20214;-55
2022/01/09 09:49:29;;;;;;;0.30;0.30;;;;;;;;;;5108049;28;20246;-55
2022/01/09 09:51:56;;;;;;;1.52;0.43;;;;;;;;;;5115752;28;20199;-55
2022/01/09 09:54:25;;;;;;;21.73;18.25;;;;;;;;;;5115972;28;20201;-54
2022/01/09 09:56:53;;;;;;;23.55;20.08;;;;;;;;;;5115955;28;20505;-55
2022/01/09 09:59:24;;;;;;;18.27;16.33;;;;;;;;;;5116242;28;20837;-56
2022/01/09 10:01:52;;;;;;;19.02;15.90;;;;;;;;;;5116316;28;20250;-55
2022/01/09 10:04:19;;;;;;;16.85;15.05;;;;;;;;;;5116277;28;20210;-55
2022/01/09 10:06:49;;;;;;;15.00;13.13;;;;;;;;;;5116755;28;20199;-55
2022/01/09 10:09:18;;;;;;;15.70;13.25;;;;;;;;;;5115495;28;20521;-55
2022/01/09 10:11:48;;;;;;;14.07;12.25;;;;;;;;;;5116531;28;20287;-55
2022/01/09 10:14:16;;;;;;;12.32;11.07;;;;;;;;;;5115552;28;20202;-55
2022/01/09 10:17:04;;;;;;;12.70;10.32;;;;;;;;;;5115146;28;20211;-55
2022/01/09 10:19:41;;;;;;;11.07;9.98;;;;;;;;;;5096167;28;20512;-55
2022/01/09 10:22:22;;;;;;;12.68;10.13;;;;;;;;;;5100106;28;20229;-55
2022/01/09 10:24:50;;;;;;;11.07;9.77;;;;;;;;;;5115368;28;20199;-55
2022/01/09 10:27:27;;;;;;;10.63;9.25;;;;;;;;;;5115929;28;20646;-55
2022/01/09 10:29:55;;;;;;;11.70;8.95;;;;;;;;;;5115609;28;20195;-55
2022/01/09 10:32:26;;;;;;;9.00;7.80;;;;;;;;;;5116005;28;20198;-55
2022/01/09 10:35:05;;;;;;;8.48;7.53;;;;;;;;;;5115705;28;20221;-55
2022/01/09 10:37:35;;;;;;;8.10;7.28;;;;;;;;;;5115368;28;20231;-56
2022/01/09 10:40:02;;;;;;;7.85;6.93;;;;;;;;;;5115806;28;20217;-55
2022/01/09 10:42:29;;;;;;;8.05;6.65;;;;;;;;;;5116023;28;20471;-55
2022/01/09 10:44:58;;;;;;;7.82;6.75;;;;;;;;;;5116082;28;20195;-55
2022/01/09 10:47:36;;;;;;;8.18;6.45;;;;;;;;;;5115849;28;20207;-55
2022/01/09 10:50:04;;;;;;;7.90;6.22;;;;;;;;;;5115724;28;20555;-55
2022/01/09 10:52:36;;;;;;;7.35;5.80;;;;;;;;;;5115309;28;20191;-56
2022/01/09 10:55:07;;;;;;;5.90;5.30;;;;;;;;;;5115266;28;20565;-55
2022/01/09 10:57:37;;;;;;;7.40;5.35;;;;;;;;;;5115970;28;20202;-55
2022/01/09 11:00:08;;;;;;;5.97;5.38;;;;;;;;;;5115283;28;20203;-55
2022/01/09 11:02:35;;;;;;;5.53;4.93;;;;;;;;;;5116166;28;20238;-55
2022/01/09 11:05:02;;;;;;;5.38;4.50;;;;;;;;;;5115467;28;20195;-55
2022/01/09 11:07:31;;;;;;;5.72;4.82;;;;;;;;;;5114858;28;20590;-55
2022/01/09 11:10:00;;;;;;;4.88;4.28;;;;;;;;;;5113987;28;20250;-55
2022/01/09 11:12:34;;;;;;;6.13;4.38;;;;;;;;;;5116038;28;20207;-55
2022/01/09 11:15:02;;;;;;;5.60;4.28;;;;;;;;;;5115552;28;20230;-55
2022/01/09 11:17:30;;;;;;;5.00;4.22;;;;;;;;;;5115131;28;20570;-55
2022/01/09 11:19:58;;;;;;;6.07;3.58;;;;;;;;;;5114773;28;20191;-55
2022/01/09 11:22:25;;;;;;;4.38;3.90;;;;;;;;;;5114307;28;20622;-55
2022/01/09 11:25:08;;;;;;;4.20;3.65;;;;;;;;;;5115233;28;20270;-55
2022/01/09 11:27:50;;;;;;;5.78;3.83;;;;;;;;;;5113342;28;20486;-55
2022/01/09 11:30:21;;;;;;;3.80;3.40;;;;;;;;;;5115770;28;20593;-55
2022/01/09 11:33:00;;;;;;;4.70;3.47;;;;;;;;;;5119347;28;20203;-55
2022/01/09 11:35:33;;;;;;;5.30;3.42;;;;;;;;;;5115640;28;20277;-55
2022/01/09 11:38:05;;;;;;;5.70;3.30;;;;;;;;;;5117509;28;20199;-56
2022/01/09 11:40:33;;;;;;;4.72;3.03;;;;;;;;;;5119163;28;20245;-55
2022/01/09 11:43:02;;;;;;;3.88;2.80;;;;;;;;;;5118213;28;20219;-55
2022/01/09 11:45:48;;;;;;;4.57;2.92;;;;;;;;;;5118470;28;20223;-56
2022/01/09 11:48:16;;;;;;;3.70;2.70;;;;;;;;;;5118137;28;20215;-56
2022/01/09 11:51:02;;;;;;;3.38;2.85;;;;;;;;;;5117469;28;20199;-55
2022/01/09 11:53:29;;;;;;;3.33;2.58;;;;;;;;;;5118382;28;20574;-55
2022/01/09 11:55:57;;;;;;;3.58;2.88;;;;;;;;;;5117692;28;20195;-55
2022/01/09 11:58:24;;;;;;;4.22;2.70;;;;;;;;;;5118515;27;20209;-55
2022/01/09 12:00:53;;;;;;;2.55;2.20;;;;;;;;;;5118879;28;20550;-55
2022/01/09 12:03:36;;;;;;;3.28;2.47;;;;;;;;;;5118102;28;20227;-55
2022/01/09 12:06:05;;;;;;;2.72;2.20;;;;;;;;;;5119212;28;20199;-55
2022/01/09 12:08:51;;;;;;;2.80;2.13;;;;;;;;;;5117999;28;20230;-55
2022/01/09 12:11:18;;;;;;;3.03;2.40;;;;;;;;;;5117853;28;20209;-55
2022/01/09 12:13:47;;;;;;;2.97;2.20;;;;;;;;;;5118150;28;20571;-55
2022/01/09 12:16:33;;;;;;;4.47;2.00;;;;;;;;;;5118804;28;20578;-55
2022/01/09 12:19:01;;;;;;;3.15;2.00;;;;;;;;;;5118007;28;20199;-56
2022/01/09 12:21:50;;;;;;;2.17;1.92;;;;;;;;;;5118388;28;20206;-55
2022/01/09 12:24:36;;;;;;;3.58;1.90;;;;;;;;;;5118160;28;20318;-55
2022/01/09 12:27:34;;;;;;;2.15;1.85;;;;;;;;;;5118264;28;20199;-55
2022/01/09 12:30:02;;;;;;;2.55;1.80;;;;;;;;;;5110128;28;20199;-55
2022/01/09 12:32:39;;;;;;;2.42;1.63;;;;;;;;;;5117820;28;20555;-55
2022/01/09 12:35:15;;;;;;;2.47;1.75;;;;;;;;;;5117244;28;20198;-55
2022/01/09 12:37:45;;;;;;;2.28;1.50;;;;;;;;;;5117766;28;20202;-56
2022/01/09 12:40:15;;;;;;;3.13;1.45;;;;;;;;;;5117682;28;20279;-55
2022/01/09 12:42:46;;;;;;;2.45;1.60;;;;;;;;;;5117984;28;20218;-55
2022/01/09 12:45:13;;;;;;;1.77;1.40;;;;;;;;;;5117799;28;20248;-55
2022/01/09 12:47:41;;;;;;;2.40;1.40;;;;;;;;;;5116819;28;20583;-55
2022/01/09 12:50:08;;;;;;;2.35;1.30;;;;;;;;;;5117389;28;20689;-55
2022/01/09 12:52:37;;;;;;;12.30;10.70;;;;;;;;;;5116970;28;20195;-55
2022/01/09 12:55:05;;;;;;;11.50;10.30;;;;;;;;;;5118126;28;20207;-56
2022/01/09 12:57:32;;;;;;;10.23;9.10;;;;;;;;;;5117462;28;20562;-55
2022/01/09 13:00:00;;;;;;;8.48;7.68;;;;;;;;;;5117289;27;20206;-55
2022/01/09 13:02:27;;;;;;;8.38;7.30;;;;;;;;;;5116934;28;20294;-55
2022/01/09 13:04:55;;;;;;;8.38;7.00;;;;;;;;;;5117231;28;20203;-55
2022/01/09 13:07:22;;;;;;;7.65;6.95;;;;;;;;;;5117699;28;20221;-55
2022/01/09 13:09:51;;;;;;;7.50;6.45;;;;;;;;;;5116042;28;20227;-55
2022/01/09 13:12:19;;;;;;;7.07;6.13;;;;;;;;;;5117278;28;20203;-55
2022/01/09 13:14:47;;;;;;;6.90;6.20;;;;;;;;;;5116675;28;20259;-55
2022/01/09 13:17:16;;;;;;;6.68;5.80;;;;;;;;;;5116080;28;20210;-55
2022/01/09 13:19:43;;;;;;;8.55;6.32;;;;;;;;;;5116442;28;20264;-56
2022/01/09 13:22:17;;;;;;;6.38;5.40;;;;;;;;;;5117118;28;20493;-55
2022/01/09 13:24:45;;;;;;;7.50;5.30;;;;;;;;;;5116668;28;20218;-57
2022/01/09 13:27:19;;;;;;;5.97;5.15;;;;;;;;;;5117405;28;20230;-56
2022/01/09 13:29:55;;;;;;;5.10;4.60;;;;;;;;;;5115649;28;20202;-55
2022/01/09 13:32:23;;;;;;;6.18;5.00;;;;;;;;;;5115397;28;20198;-55
2022/01/09 13:34:51;;;;;;;4.82;4.32;;;;;;;;;;5115117;28;20198;-55
2022/01/09 13:37:18;;;;;;;4.60;4.20;;;;;;;;;;5116120;28;20202;-55
2022/01/09 13:39:47;;;;;;;4.72;4.28;;;;;;;;;;5115475;28;20195;-55
2022/01/09 13:42:22;;;;;;;6.25;4.00;;;;;;;;;;5115869;28;20206;-55
2022/01/09 13:45:01;;;;;;;5.22;4.20;;;;;;;;;;5115356;28;20633;-55
2022/01/09 13:47:28;;;;;;;4.82;3.55;;;;;;;;;;5115224;28;20191;-55
2022/01/09 13:50:00;;;;;;;4.65;4.05;;;;;;;;;;5116194;28;20701;-55
2022/01/09 13:52:28;;;;;;;4.53;4.07;;;;;;;;;;5115298;28;20253;-56
2022/01/09 13:54:58;;;;;;;4.20;3.80;;;;;;;;;;5115599;28;20218;-55
2022/01/09 13:57:28;;;;;;;7.03;4.60;;;;;;;;;;5116710;28;20607;-55
2022/01/09 13:59:56;;;;;;;7.15;4.90;;;;;;;;;;5115277;28;20209;-55
2022/01/09 14:02:24;;;;;;;6.97;5.07;;;;;;;;;;5115211;28;20199;-55
2022/01/09 14:05:06;;;;;;;5.72;4.72;;;;;;;;;;5115295;28;20222;-55
2022/01/09 14:07:36;;;;;;;7.65;4.78;;;;;;;;;;5115111;28;20245;-55
2022/01/09 14:10:04;;;;;;;9.48;5.25;;;;;;;;;;5101512;28;20258;-55
2022/01/09 14:12:36;;;;;;;7.88;5.50;;;;;;;;;;5116332;28;20507;-56
2022/01/09 14:15:12;;;;;;;8.13;4.95;;;;;;;;;;5116535;28;20566;-55
2022/01/09 14:17:44;;;;;;;8.25;4.72;;;;;;;;;;5115797;28;20658;-55
2022/01/09 14:20:16;;;;;;;5.97;4.80;;;;;;;;;;5116224;28;20256;-55
2022/01/09 14:22:47;;;;;;;5.25;4.63;;;;;;;;;;5116434;28;20210;-55
2022/01/09 14:25:16;;;;;;;6.38;4.72;;;;;;;;;;5116855;28;20495;-55
2022/01/09 14:27:46;;;;;;;6.80;4.80;;;;;;;;;;5116679;28;20214;-55
2022/01/09 14:30:23;;;;;;;7.68;4.82;;;;;;;;;;5115826;28;20631;-55
2022/01/09 14:33:05;;;;;;;7.05;4.78;;;;;;;;;;5116045;28;20210;-55
2022/01/09 14:35:34;;;;;;;6.25;4.35;;;;;;;;;;5115535;28;20247;-55
2022/01/09 14:38:02;;;;;;;6.88;4.35;;;;;;;;;;5115919;28;20199;-55
2022/01/09 14:40:30;;;;;;;7.22;4.45;;;;;;;;;;5117071;28;20571;-55
2022/01/09 14:42:59;;;;;;;4.90;4.18;;;;;;;;;;5116739;28;20203;-55
2022/01/09 14:45:27;;;;;;;4.97;4.05;;;;;;;;;;5116435;28;20199;-55
2022/01/09 14:47:54;;;;;;;4.80;3.63;;;;;;;;;;5116060;28;20198;-55
2022/01/09 14:50:22;;;;;;;4.78;3.70;;;;;;;;;;5116182;28;20590;-55
2022/01/09 14:52:49;;;;;;;7.13;4.32;;;;;;;;;;5115774;28;20202;-55